createdAt,value
2019-02-08T00:00:36.353Z,0
2019-02-08T00:01:46.327Z,0
2019-02-08T00:02:56.030Z,0
2019-02-08T00:04:05.979Z,0
2019-02-08T00:05:15.939Z,0
2019-02-08T00:06:25.994Z,0
2019-02-08T00:07:36.085Z,0
2019-02-08T00:08:46.022Z,0
2019-02-08T00:09:55.980Z,0
2019-02-08T00:11:05.969Z,0
2019-02-08T00:12:15.946Z,0
2019-02-08T00:13:26.001Z,0
2019-02-08T00:14:35.715Z,0
2019-02-08T00:15:45.664Z,0
2019-02-08T00:16:55.659Z,0
2019-02-08T00:18:05.602Z,0
2019-02-08T00:19:15.661Z,0
2019-02-08T00:20:25.627Z,0
2019-02-08T00:21:35.609Z,0
2019-02-08T00:22:45.300Z,0
2019-02-08T00:23:55.244Z,0
2019-02-08T00:25:05.354Z,0
2019-02-08T00:26:15.383Z,0
2019-02-08T00:27:25.318Z,0
2019-02-08T00:28:35.290Z,0
2019-02-08T00:29:45.237Z,0
2019-02-08T00:30:55.316Z,0
2019-02-08T00:32:05.286Z,0
2019-02-08T00:33:15.243Z,0
2019-02-08T00:34:25.196Z,0
2019-02-08T00:35:35.141Z,0
2019-02-08T00:36:45.184Z,0
2019-02-08T00:37:55.129Z,0
2019-02-08T00:39:05.093Z,0
2019-02-08T00:40:14.785Z,0
2019-02-08T00:41:24.731Z,0
2019-02-08T00:42:34.668Z,0
2019-02-08T00:43:44.617Z,0
2019-02-08T00:44:54.557Z,0
2019-02-08T00:46:04.496Z,0
2019-02-08T00:47:14.461Z,0
2019-02-08T00:48:24.146Z,0
2019-02-08T00:49:34.082Z,0
2019-02-08T00:50:44.016Z,0
2019-02-08T00:51:53.964Z,0
2019-02-08T00:53:03.922Z,0
2019-02-08T00:54:13.916Z,0
2019-02-08T00:55:23.866Z,0
2019-02-08T00:56:33.799Z,0
2019-02-08T00:57:43.495Z,0
2019-02-08T00:58:53.191Z,0
2019-02-08T01:00:03.240Z,0
2019-02-08T01:01:13.192Z,0
2019-02-08T01:02:23.491Z,0
2019-02-08T01:03:33.769Z,0
2019-02-08T01:04:44.480Z,0
2019-02-08T01:05:55.230Z,0
2019-02-08T01:07:06.080Z,0
2019-02-08T01:08:16.964Z,0
2019-02-08T01:09:27.554Z,0
2019-02-08T01:10:38.380Z,0
2019-02-08T01:11:48.898Z,0
2019-02-08T01:12:59.568Z,0
2019-02-08T01:14:09.670Z,0
2019-02-08T01:15:19.872Z,0
2019-02-08T01:16:29.974Z,0
2019-02-08T01:17:39.947Z,0
2019-02-08T01:18:49.882Z,0
2019-02-08T01:19:59.821Z,0
2019-02-08T01:21:09.772Z,0
2019-02-08T01:22:19.704Z,0
2019-02-08T01:23:29.703Z,0
2019-02-08T01:24:39.627Z,0
2019-02-08T01:25:49.543Z,0
2019-02-08T01:26:59.462Z,0
2019-02-08T01:28:09.377Z,0
2019-02-08T01:29:19.410Z,0
2019-02-08T01:30:29.353Z,0
2019-02-08T01:31:39.275Z,0
2019-02-08T01:32:49.189Z,0
2019-02-08T01:33:59.104Z,0
2019-02-08T01:35:08.878Z,0
2019-02-08T01:36:18.797Z,0
2019-02-08T01:37:28.710Z,0
2019-02-08T01:38:38.620Z,0
2019-02-08T01:39:48.550Z,0
2019-02-08T01:40:58.510Z,0
2019-02-08T01:42:08.447Z,0
2019-02-08T01:43:18.366Z,0
2019-02-08T01:44:28.037Z,0
2019-02-08T01:45:37.966Z,0
2019-02-08T01:46:47.986Z,0
2019-02-08T01:47:57.933Z,0
2019-02-08T01:49:07.846Z,0
2019-02-08T01:50:17.760Z,0
2019-02-08T01:51:27.679Z,0
2019-02-08T01:52:37.687Z,0
2019-02-08T01:53:53.413Z,0
2019-02-08T01:55:03.365Z,0
2019-02-08T01:56:13.274Z,0
2019-02-08T01:57:23.183Z,0
2019-02-08T01:58:33.116Z,0
2019-02-08T01:59:43.033Z,0
2019-02-08T02:00:52.947Z,0
2019-02-08T02:02:02.859Z,0
2019-02-08T02:03:12.772Z,0
2019-02-08T02:04:22.788Z,0
2019-02-08T02:05:32.708Z,0
2019-02-08T02:06:42.629Z,0
2019-02-08T02:07:52.537Z,0
2019-02-08T02:09:02.457Z,0
2019-02-08T02:10:12.374Z,0
2019-02-08T02:11:22.287Z,0
2019-02-08T02:12:32.198Z,0
2019-02-08T02:13:42.112Z,0
2019-02-08T02:14:52.019Z,0
2019-02-08T02:16:02.041Z,0
2019-02-08T02:17:11.961Z,0
2019-02-08T02:18:21.883Z,0
2019-02-08T02:19:31.796Z,0
2019-02-08T02:20:41.715Z,0
2019-02-08T02:21:51.630Z,0
2019-02-08T02:23:01.593Z,0
2019-02-08T02:24:11.287Z,0
2019-02-08T02:25:21.203Z,0
2019-02-08T02:26:31.113Z,0
2019-02-08T02:27:41.046Z,0
2019-02-08T02:28:50.711Z,0
2019-02-08T02:30:00.641Z,0
2019-02-08T02:31:10.561Z,0
2019-02-08T02:32:20.499Z,0
2019-02-08T02:33:30.420Z,0
2019-02-08T02:34:40.097Z,0
2019-02-08T02:35:49.809Z,0
2019-02-08T02:36:59.758Z,0
2019-02-08T02:38:09.698Z,0
2019-02-08T02:39:19.724Z,0
2019-02-08T02:40:29.407Z,0
2019-02-08T02:41:39.347Z,0
2019-02-08T02:42:49.308Z,0
2019-02-08T02:43:59.222Z,0
2019-02-08T02:45:09.267Z,0
2019-02-08T02:46:19.220Z,0
2019-02-08T02:47:29.202Z,0
2019-02-08T02:48:39.167Z,0
2019-02-08T02:49:49.080Z,0
2019-02-08T02:50:58.993Z,0
2019-02-08T02:52:08.915Z,0
2019-02-08T02:53:18.876Z,0
2019-02-08T02:54:28.794Z,0
2019-02-08T02:55:38.726Z,0
2019-02-08T02:56:48.644Z,0
2019-02-08T02:57:58.588Z,0
2019-02-08T02:59:08.526Z,0
2019-02-08T03:00:18.453Z,0
2019-02-08T03:01:28.363Z,0
2019-02-08T03:02:38.137Z,0
2019-02-08T03:03:48.058Z,0
2019-02-08T03:04:57.969Z,0
2019-02-08T03:06:07.911Z,0
2019-02-08T03:07:17.833Z,0
2019-02-08T03:08:27.557Z,0
2019-02-08T03:09:37.474Z,0
2019-02-08T03:10:47.419Z,0
2019-02-08T03:11:57.114Z,0
2019-02-08T03:13:07.032Z,0
2019-02-08T03:14:17.045Z,0
2019-02-08T03:15:26.964Z,0
2019-02-08T03:16:36.882Z,0
2019-02-08T03:17:46.809Z,0
2019-02-08T03:18:56.736Z,0
2019-02-08T03:20:06.651Z,0
2019-02-08T03:21:16.332Z,0
2019-02-08T03:22:26.263Z,0
2019-02-08T03:23:36.182Z,0
2019-02-08T03:24:46.110Z,0
2019-02-08T03:25:56.053Z,0
2019-02-08T03:27:06.020Z,0
2019-02-08T03:28:15.946Z,0
2019-02-08T03:29:25.869Z,0
2019-02-08T03:30:35.869Z,0
2019-02-08T03:31:45.933Z,0
2019-02-08T03:32:55.880Z,0
2019-02-08T03:34:05.797Z,0
2019-02-08T03:35:15.716Z,0
2019-02-08T03:36:25.636Z,0
2019-02-08T03:37:35.362Z,0
2019-02-08T03:38:45.294Z,0
2019-02-08T03:39:54.954Z,0
2019-02-08T03:41:04.869Z,0
2019-02-08T03:42:14.795Z,0
2019-02-08T03:43:24.807Z,0
2019-02-08T03:44:34.735Z,0
2019-02-08T03:45:44.657Z,0
2019-02-08T03:46:54.574Z,0
2019-02-08T03:48:04.495Z,0
2019-02-08T03:49:14.414Z,0
2019-02-08T03:50:24.335Z,0
2019-02-08T03:51:34.250Z,0
2019-02-08T03:52:44.190Z,0
2019-02-08T03:53:54.114Z,0
2019-02-08T03:55:04.025Z,0
2019-02-08T03:56:13.942Z,0
2019-02-08T03:57:23.851Z,0
2019-02-08T03:58:33.769Z,0
2019-02-08T03:59:43.680Z,0
2019-02-08T04:00:53.663Z,0
2019-02-08T04:02:03.578Z,0
2019-02-08T04:03:13.499Z,0
2019-02-08T04:04:23.419Z,0
2019-02-08T04:05:33.338Z,0
2019-02-08T04:06:43.355Z,0
2019-02-08T04:07:53.281Z,0
2019-02-08T04:09:03.200Z,0
2019-02-08T04:10:13.128Z,0
2019-02-08T04:11:23.039Z,0
2019-02-08T04:12:32.999Z,0
2019-02-08T04:13:42.912Z,0
2019-02-08T04:14:52.862Z,0
2019-02-08T04:16:02.780Z,0
2019-02-08T04:17:12.695Z,0
2019-02-08T04:18:22.689Z,0
2019-02-08T04:19:32.623Z,0
2019-02-08T04:20:42.535Z,0
2019-02-08T04:21:52.469Z,0
2019-02-08T04:23:02.381Z,0
2019-02-08T04:24:12.299Z,0
2019-02-08T04:25:22.218Z,0
2019-02-08T04:26:31.906Z,0
2019-02-08T04:27:41.825Z,0
2019-02-08T04:28:51.754Z,0
2019-02-08T04:30:01.820Z,0
2019-02-08T04:31:11.754Z,0
2019-02-08T04:32:21.674Z,0
2019-02-08T04:33:31.598Z,0
2019-02-08T04:34:41.512Z,0
2019-02-08T04:35:51.535Z,0
2019-02-08T04:37:01.446Z,0
2019-02-08T04:38:11.360Z,0
2019-02-08T04:39:21.281Z,0
2019-02-08T04:40:31.193Z,0
2019-02-08T04:41:41.204Z,0
2019-02-08T04:42:51.122Z,0
2019-02-08T04:44:00.793Z,0
2019-02-08T04:45:10.716Z,0
2019-02-08T04:46:20.626Z,0
2019-02-08T04:47:30.589Z,0
2019-02-08T04:48:40.508Z,0
2019-02-08T04:49:50.416Z,0
2019-02-08T04:51:00.346Z,0
2019-02-08T04:52:10.279Z,0
2019-02-08T04:53:20.288Z,0
2019-02-08T04:54:37.795Z,0
2019-02-08T04:55:48.119Z,0
2019-02-08T04:56:58.071Z,0
2019-02-08T04:58:08.008Z,0
2019-02-08T04:59:18.017Z,0
2019-02-08T05:00:27.932Z,0
2019-02-08T05:01:37.864Z,0
2019-02-08T05:02:47.786Z,0
2019-02-08T05:03:57.466Z,0
2019-02-08T05:05:07.510Z,0
2019-02-08T05:06:17.440Z,0
2019-02-08T05:07:27.348Z,0
2019-02-08T05:08:37.263Z,0
2019-02-08T05:09:47.400Z,0
2019-02-08T05:10:57.376Z,0
2019-02-08T05:12:07.301Z,0
2019-02-08T05:13:17.217Z,0
2019-02-08T05:14:27.127Z,0
2019-02-08T05:15:37.047Z,0
2019-02-08T05:16:47.015Z,0
2019-02-08T05:17:56.948Z,0
2019-02-08T05:19:06.866Z,0
2019-02-08T05:20:16.775Z,0
2019-02-08T05:21:26.683Z,0
2019-02-08T05:22:36.656Z,0
2019-02-08T05:23:46.565Z,0
2019-02-08T05:24:56.488Z,0
2019-02-08T05:26:06.403Z,0
2019-02-08T05:27:16.313Z,0
2019-02-08T05:28:26.229Z,0
2019-02-08T05:29:36.146Z,0
2019-02-08T05:30:46.064Z,0
2019-02-08T05:31:55.979Z,0
2019-02-08T05:33:05.971Z,0
2019-02-08T05:34:16.015Z,0
2019-02-08T05:35:25.989Z,0
2019-02-08T05:36:35.905Z,0
2019-02-08T05:37:45.818Z,0
2019-02-08T05:38:55.733Z,0
2019-02-08T05:40:05.695Z,0
2019-02-08T05:41:15.607Z,0
2019-02-08T05:42:25.529Z,0
2019-02-08T05:43:35.472Z,0
2019-02-08T05:44:45.398Z,0
2019-02-08T05:45:55.417Z,0
2019-02-08T05:47:05.361Z,0
2019-02-08T05:48:15.283Z,0
2019-02-08T05:49:25.198Z,0
2019-02-08T05:50:35.115Z,0
2019-02-08T05:51:45.065Z,0
2019-02-08T05:52:54.980Z,0
2019-02-08T05:54:04.906Z,0
2019-02-08T05:55:14.844Z,0
2019-02-08T05:56:24.761Z,0
2019-02-08T05:57:35.988Z,0
2019-02-08T05:58:45.912Z,0
2019-02-08T05:59:55.827Z,0
2019-02-08T06:01:05.758Z,0
2019-02-08T06:02:15.675Z,0
2019-02-08T06:03:25.650Z,0
2019-02-08T06:04:35.601Z,0
2019-02-08T06:05:45.523Z,0
2019-02-08T06:06:55.449Z,0
2019-02-08T06:08:05.377Z,0
2019-02-08T06:09:15.426Z,0
2019-02-08T06:10:25.346Z,0
2019-02-08T06:11:37.795Z,0
2019-02-08T06:12:47.722Z,0
2019-02-08T06:13:57.734Z,0
2019-02-08T06:15:07.777Z,0
2019-02-08T06:16:17.698Z,0
2019-02-08T06:17:27.629Z,0
2019-02-08T06:18:37.543Z,0
2019-02-08T06:19:47.455Z,0
2019-02-08T06:20:57.480Z,0
2019-02-08T06:22:07.391Z,0
2019-02-08T06:23:17.302Z,0
2019-02-08T06:24:27.260Z,0
2019-02-08T06:25:37.210Z,0
2019-02-08T06:26:47.178Z,0
2019-02-08T06:27:57.088Z,0
2019-02-08T06:29:07.012Z,0
2019-02-08T06:30:16.941Z,0
2019-02-08T06:31:26.902Z,0
2019-02-08T06:32:36.921Z,0
2019-02-08T06:33:46.837Z,0
2019-02-08T06:34:56.755Z,0
2019-02-08T06:36:06.683Z,0
2019-02-08T06:37:16.594Z,0
2019-02-08T06:38:26.603Z,0
2019-02-08T06:39:36.536Z,0
2019-02-08T06:40:46.465Z,0
2019-02-08T06:41:56.385Z,0
2019-02-08T06:43:06.318Z,0
2019-02-08T06:44:16.287Z,0
2019-02-08T06:45:26.208Z,0
2019-02-08T06:46:36.121Z,0
2019-02-08T06:47:46.052Z,0
2019-02-08T06:48:55.970Z,0
2019-02-08T06:50:05.934Z,0
2019-02-08T06:51:15.844Z,0
2019-02-08T06:52:25.751Z,0
2019-02-08T06:53:35.661Z,0
2019-02-08T06:54:45.575Z,0
2019-02-08T06:56:00.964Z,0
2019-02-08T06:57:10.892Z,0
2019-02-08T06:58:22.013Z,0
2019-02-08T06:59:31.925Z,0
2019-02-08T07:00:41.857Z,0
2019-02-08T07:01:51.875Z,0
2019-02-08T07:03:01.804Z,0
2019-02-08T07:04:11.731Z,0
2019-02-08T07:05:21.643Z,5
2019-02-08T07:06:31.599Z,5
2019-02-08T07:07:41.571Z,5
2019-02-08T07:08:51.238Z,5
2019-02-08T07:10:00.902Z,5
2019-02-08T07:11:10.560Z,5
2019-02-08T07:12:20.474Z,10
2019-02-08T07:13:30.430Z,10
2019-02-08T07:14:40.342Z,10
2019-02-08T07:15:50.255Z,10
2019-02-08T07:17:00.173Z,10
2019-02-08T07:18:10.094Z,15
2019-02-08T07:19:20.001Z,15
2019-02-08T07:20:29.918Z,15
2019-02-08T07:21:39.582Z,15
2019-02-08T07:22:49.498Z,20
2019-02-08T07:23:59.415Z,20
2019-02-08T07:25:09.200Z,20
2019-02-08T07:26:19.123Z,20
2019-02-08T07:27:29.481Z,25
2019-02-08T07:28:39.553Z,25
2019-02-08T07:29:49.469Z,25
2019-02-08T07:30:59.378Z,30
2019-02-08T07:32:09.398Z,30
2019-02-08T07:33:19.312Z,30
2019-02-08T07:34:29.226Z,35
2019-02-08T07:35:39.143Z,35
2019-02-08T07:36:49.155Z,35
2019-02-08T07:38:00.164Z,40
2019-02-08T07:39:10.201Z,40
2019-02-08T07:40:20.109Z,45
2019-02-08T07:41:30.044Z,45
2019-02-08T07:42:40.001Z,50
2019-02-08T07:43:49.909Z,50
2019-02-08T07:44:59.822Z,55
2019-02-08T07:46:09.732Z,55
2019-02-08T07:47:19.642Z,60
2019-02-08T07:48:29.741Z,65
2019-02-08T07:49:39.653Z,65
2019-02-08T07:50:49.559Z,70
2019-02-08T07:51:59.496Z,70
2019-02-08T07:53:09.400Z,75
2019-02-08T07:54:19.414Z,75
2019-02-08T07:55:35.638Z,85
2019-02-08T07:56:45.548Z,90
2019-02-08T07:57:55.462Z,95
2019-02-08T07:59:05.376Z,95
2019-02-08T08:00:15.291Z,100
2019-02-08T08:01:25.201Z,100
2019-02-08T08:02:34.859Z,95
2019-02-08T08:03:44.768Z,95
2019-02-08T08:04:54.676Z,90
2019-02-08T08:06:04.692Z,90
2019-02-08T08:07:14.612Z,95
2019-02-08T08:08:24.519Z,95
2019-02-08T08:09:34.440Z,100
2019-02-08T08:10:44.353Z,100
2019-02-08T08:11:54.415Z,115
2019-02-08T08:13:04.326Z,115
2019-02-08T08:14:14.235Z,120
2019-02-08T08:15:24.146Z,120
2019-02-08T08:16:34.059Z,110
2019-02-08T08:17:44.025Z,105
2019-02-08T08:18:53.940Z,110
2019-02-08T08:20:03.860Z,110
2019-02-08T08:21:13.771Z,115
2019-02-08T08:22:23.687Z,130
2019-02-08T08:23:33.704Z,130
2019-02-08T08:24:43.620Z,135
2019-02-08T08:25:53.531Z,130
2019-02-08T08:27:03.444Z,135
2019-02-08T08:28:13.355Z,145
2019-02-08T08:29:23.367Z,150
2019-02-08T08:30:33.285Z,150
2019-02-08T08:31:42.945Z,150
2019-02-08T08:32:52.864Z,145
2019-02-08T08:34:02.787Z,140
2019-02-08T08:35:12.786Z,140
2019-02-08T08:36:22.701Z,150
2019-02-08T08:37:34.330Z,140
2019-02-08T08:38:44.252Z,145
2019-02-08T08:39:53.916Z,130
2019-02-08T08:41:03.958Z,125
2019-02-08T08:42:13.874Z,130
2019-02-08T08:43:24.589Z,130
2019-02-08T08:44:34.505Z,155
2019-02-08T08:45:44.411Z,150
2019-02-08T08:46:54.422Z,145
2019-02-08T08:48:04.338Z,150
2019-02-08T08:49:14.245Z,180
2019-02-08T08:50:24.165Z,185
2019-02-08T08:51:34.084Z,185
2019-02-08T08:52:44.091Z,185
2019-02-08T08:53:54.019Z,185
2019-02-08T08:55:03.931Z,190
2019-02-08T08:56:13.865Z,190
2019-02-08T08:57:23.777Z,195
2019-02-08T08:58:33.793Z,200
2019-02-08T08:59:43.715Z,200
2019-02-08T09:00:53.634Z,205
2019-02-08T09:02:03.550Z,210
2019-02-08T09:03:13.462Z,210
2019-02-08T09:04:23.404Z,215
2019-02-08T09:05:33.337Z,215
2019-02-08T09:06:43.251Z,220
2019-02-08T09:07:53.186Z,225
2019-02-08T09:09:02.853Z,230
2019-02-08T09:10:13.217Z,230
2019-02-08T09:11:23.233Z,235
2019-02-08T09:12:33.165Z,240
2019-02-08T09:13:43.085Z,240
2019-02-08T09:14:53.000Z,240
2019-02-08T09:16:03.018Z,240
2019-02-08T09:17:12.942Z,230
2019-02-08T09:18:22.609Z,235
2019-02-08T09:19:32.522Z,225
2019-02-08T09:20:43.849Z,225
2019-02-08T09:21:53.827Z,220
2019-02-08T09:23:03.745Z,220
2019-02-08T09:24:13.658Z,225
2019-02-08T09:25:23.575Z,225
2019-02-08T09:26:33.484Z,225
2019-02-08T09:27:43.497Z,225
2019-02-08T09:28:53.415Z,225
2019-02-08T09:30:03.330Z,225
2019-02-08T09:31:13.256Z,230
2019-02-08T09:32:23.169Z,230
2019-02-08T09:33:33.192Z,230
2019-02-08T09:34:43.102Z,230
2019-02-08T09:35:53.023Z,230
2019-02-08T09:37:02.935Z,235
2019-02-08T09:38:12.857Z,235
2019-02-08T09:39:22.820Z,235
2019-02-08T09:40:32.734Z,235
2019-02-08T09:41:42.650Z,240
2019-02-08T09:42:52.560Z,240
2019-02-08T09:44:02.479Z,240
2019-02-08T09:45:12.238Z,240
2019-02-08T09:46:21.900Z,240
2019-02-08T09:47:31.810Z,245
2019-02-08T09:48:41.720Z,245
2019-02-08T09:49:51.670Z,250
2019-02-08T09:51:01.580Z,250
2019-02-08T09:52:11.495Z,250
2019-02-08T09:53:21.408Z,250
2019-02-08T09:54:31.318Z,250
2019-02-08T09:55:41.235Z,250
2019-02-08T09:56:51.240Z,250
2019-02-08T09:58:01.151Z,245
2019-02-08T09:59:11.068Z,255
2019-02-08T10:00:20.981Z,255
2019-02-08T10:01:30.897Z,255
2019-02-08T10:02:42.119Z,260
2019-02-08T10:03:52.121Z,260
2019-02-08T10:05:02.037Z,260
2019-02-08T10:06:11.980Z,260
2019-02-08T10:07:21.924Z,260
2019-02-08T10:08:31.940Z,265
2019-02-08T10:09:41.860Z,265
2019-02-08T10:10:51.783Z,265
2019-02-08T10:12:01.696Z,265
2019-02-08T10:13:11.604Z,265
2019-02-08T10:14:21.524Z,270
2019-02-08T10:15:31.474Z,270
2019-02-08T10:16:41.382Z,270
2019-02-08T10:17:51.297Z,270
2019-02-08T10:19:01.206Z,270
2019-02-08T10:20:11.169Z,270
2019-02-08T10:21:21.123Z,275
2019-02-08T10:22:31.035Z,275
2019-02-08T10:23:40.945Z,275
2019-02-08T10:24:50.866Z,275
2019-02-08T10:26:07.814Z,275
2019-02-08T10:27:17.729Z,285
2019-02-08T10:28:27.644Z,290
2019-02-08T10:29:37.314Z,290
2019-02-08T10:30:47.225Z,290
2019-02-08T10:31:57.239Z,290
2019-02-08T10:33:07.183Z,290
2019-02-08T10:34:17.095Z,290
2019-02-08T10:35:27.011Z,295
2019-02-08T10:36:36.924Z,295
2019-02-08T10:37:46.942Z,295
2019-02-08T10:38:56.892Z,295
2019-02-08T10:40:07.424Z,295
2019-02-08T10:41:17.339Z,300
2019-02-08T10:42:27.003Z,300
2019-02-08T10:43:36.913Z,300
2019-02-08T10:44:46.826Z,300
2019-02-08T10:45:56.734Z,300
2019-02-08T10:47:06.659Z,300
2019-02-08T10:48:16.572Z,300
2019-02-08T10:49:26.589Z,300
2019-02-08T10:50:36.503Z,300
2019-02-08T10:51:46.429Z,300
2019-02-08T10:52:56.351Z,300
2019-02-08T10:54:06.285Z,305
2019-02-08T10:55:16.304Z,305
2019-02-08T10:56:26.215Z,305
2019-02-08T10:57:36.128Z,305
2019-02-08T10:58:46.047Z,305
2019-02-08T10:59:55.966Z,330
2019-02-08T11:01:05.898Z,765
2019-02-08T11:02:15.813Z,990
2019-02-08T11:03:25.723Z,910
2019-02-08T11:04:35.642Z,835
2019-02-08T11:05:45.575Z,730
2019-02-08T11:06:55.593Z,680
2019-02-08T11:08:05.565Z,645
2019-02-08T11:09:15.229Z,630
2019-02-08T11:10:24.901Z,605
2019-02-08T11:11:34.819Z,600
2019-02-08T11:12:44.732Z,590
2019-02-08T11:13:54.990Z,595
2019-02-08T11:15:05.005Z,590
2019-02-08T11:16:14.925Z,585
2019-02-08T11:17:24.858Z,580
2019-02-08T11:18:34.883Z,580
2019-02-08T11:19:44.820Z,580
2019-02-08T11:20:54.742Z,585
2019-02-08T11:22:04.662Z,585
2019-02-08T11:23:14.624Z,590
2019-02-08T11:24:24.656Z,590
2019-02-08T11:25:34.575Z,595
2019-02-08T11:26:44.493Z,600
2019-02-08T11:27:54.423Z,600
2019-02-08T11:29:04.096Z,600
2019-02-08T11:30:14.067Z,600
2019-02-08T11:31:23.989Z,600
2019-02-08T11:32:50.011Z,605
2019-02-08T11:33:59.936Z,605
2019-02-08T11:35:09.912Z,615
2019-02-08T11:36:19.848Z,610
2019-02-08T11:37:29.767Z,605
2019-02-08T11:38:39.690Z,600
2019-02-08T11:39:49.610Z,595
2019-02-08T11:40:59.639Z,595
2019-02-08T11:42:09.565Z,600
2019-02-08T11:43:19.491Z,600
2019-02-08T11:44:29.422Z,605
2019-02-08T11:45:39.094Z,605
2019-02-08T11:46:49.168Z,610
2019-02-08T11:47:59.103Z,615
2019-02-08T11:49:09.036Z,620
2019-02-08T11:50:18.958Z,630
2019-02-08T11:51:28.880Z,650
2019-02-08T11:52:38.904Z,640
2019-02-08T11:53:48.829Z,640
2019-02-08T11:54:58.993Z,635
2019-02-08T11:56:08.927Z,640
2019-02-08T11:57:18.853Z,640
2019-02-08T11:58:28.830Z,640
2019-02-08T11:59:38.758Z,635
2019-02-08T12:00:48.686Z,635
2019-02-08T12:01:58.672Z,640
2019-02-08T12:03:09.478Z,640
2019-02-08T12:04:19.451Z,640
2019-02-08T12:05:29.121Z,640
2019-02-08T12:06:39.055Z,635
2019-02-08T12:07:48.997Z,640
2019-02-08T12:08:58.923Z,650
2019-02-08T12:10:08.958Z,645
2019-02-08T12:11:18.896Z,645
2019-02-08T12:12:28.821Z,645
2019-02-08T12:13:38.750Z,650
2019-02-08T12:14:48.674Z,655
2019-02-08T12:15:58.702Z,660
2019-02-08T12:17:08.383Z,655
2019-02-08T12:18:18.696Z,665
2019-02-08T12:19:28.702Z,670
2019-02-08T12:20:38.633Z,670
2019-02-08T12:21:48.623Z,675
2019-02-08T12:22:58.561Z,685
2019-02-08T12:24:08.493Z,680
2019-02-08T12:25:18.428Z,680
2019-02-08T12:26:28.365Z,690
2019-02-08T12:27:38.394Z,705
2019-02-08T12:28:48.330Z,705
2019-02-08T12:29:58.266Z,715
2019-02-08T12:31:08.206Z,725
2019-02-08T12:32:18.144Z,735
2019-02-08T12:33:28.234Z,745
2019-02-08T12:34:38.165Z,760
2019-02-08T12:35:48.123Z,770
2019-02-08T12:36:58.051Z,780
2019-02-08T12:38:07.980Z,775
2019-02-08T12:39:17.967Z,780
2019-02-08T12:40:27.894Z,785
2019-02-08T12:41:37.821Z,795
2019-02-08T12:42:47.751Z,800
2019-02-08T12:43:57.679Z,800
2019-02-08T12:45:07.720Z,815
2019-02-08T12:46:17.651Z,835
2019-02-08T12:47:27.334Z,845
2019-02-08T12:48:38.888Z,875
2019-02-08T12:49:48.833Z,910
2019-02-08T12:50:58.949Z,935
2019-02-08T12:52:08.964Z,965
2019-02-08T12:53:18.906Z,1030
2019-02-08T12:54:28.841Z,1080
2019-02-08T12:55:38.805Z,1150
2019-02-08T12:56:55.159Z,1395
2019-02-08T12:58:05.138Z,1770
2019-02-08T12:59:15.071Z,1695
2019-02-08T13:00:25.019Z,1465
2019-02-08T13:01:42.079Z,1420
2019-02-08T13:02:52.007Z,1395
2019-02-08T13:04:03.403Z,1350
2019-02-08T13:05:13.463Z,1325
2019-02-08T13:06:23.392Z,1305
2019-02-08T13:07:33.423Z,1255
2019-02-08T13:08:43.349Z,1245
2019-02-08T13:09:53.286Z,1240
2019-02-08T13:11:03.252Z,1150
2019-02-08T13:12:14.433Z,925
2019-02-08T13:13:24.578Z,800
2019-02-08T13:14:34.256Z,720
2019-02-08T13:15:44.182Z,615
2019-02-08T13:16:54.108Z,500
2019-02-08T13:18:04.042Z,490
2019-02-08T13:19:13.981Z,535
2019-02-08T13:20:23.914Z,590
2019-02-08T13:21:33.844Z,415
2019-02-08T13:22:43.520Z,390
2019-02-08T13:23:53.198Z,420
2019-02-08T13:25:03.179Z,410
2019-02-08T13:26:13.108Z,440
2019-02-08T13:27:23.035Z,385
2019-02-08T13:28:32.957Z,455
2019-02-08T13:29:42.881Z,470
2019-02-08T13:30:52.915Z,385
2019-02-08T13:32:02.835Z,315
2019-02-08T13:33:12.765Z,315
2019-02-08T13:34:22.694Z,285
2019-02-08T13:35:32.621Z,265
2019-02-08T13:36:42.446Z,270
2019-02-08T13:37:52.433Z,325
2019-02-08T13:39:02.371Z,395
2019-02-08T13:40:12.313Z,460
2019-02-08T13:41:22.243Z,370
2019-02-08T13:42:32.219Z,315
2019-02-08T13:43:42.144Z,345
2019-02-08T13:44:52.073Z,455
2019-02-08T13:46:01.743Z,440
2019-02-08T13:47:13.394Z,350
2019-02-08T13:48:23.365Z,265
2019-02-08T13:49:33.292Z,250
2019-02-08T13:50:43.217Z,260
2019-02-08T13:51:53.168Z,255
2019-02-08T13:53:03.094Z,265
2019-02-08T13:54:13.117Z,255
2019-02-08T13:55:23.043Z,255
2019-02-08T13:56:32.963Z,250
2019-02-08T13:57:42.889Z,255
2019-02-08T13:58:52.820Z,245
2019-02-08T14:00:02.796Z,240
2019-02-08T14:01:12.731Z,245
2019-02-08T14:02:22.662Z,235
2019-02-08T14:03:32.329Z,230
2019-02-08T14:04:42.249Z,220
2019-02-08T14:05:52.215Z,200
2019-02-08T14:07:02.135Z,195
2019-02-08T14:08:12.057Z,190
2019-02-08T14:09:21.974Z,180
2019-02-08T14:10:31.902Z,175
2019-02-08T14:11:41.871Z,170
2019-02-08T14:12:51.799Z,175
2019-02-08T14:14:02.577Z,185
2019-02-08T14:15:12.594Z,175
2019-02-08T14:16:22.530Z,170
2019-02-08T14:17:32.303Z,170
2019-02-08T14:18:42.219Z,170
2019-02-08T14:19:52.148Z,175
2019-02-08T14:21:02.075Z,170
2019-02-08T14:22:12.002Z,180
2019-02-08T14:23:21.735Z,175
2019-02-08T14:24:32.943Z,175
2019-02-08T14:25:42.934Z,175
2019-02-08T14:26:52.856Z,175
2019-02-08T14:28:02.790Z,170
2019-02-08T14:29:12.739Z,165
2019-02-08T14:30:24.052Z,165
2019-02-08T14:31:33.968Z,165
2019-02-08T14:32:43.631Z,165
2019-02-08T14:33:53.548Z,165
2019-02-08T14:35:03.513Z,165
2019-02-08T14:36:13.439Z,165
2019-02-08T14:37:23.354Z,165
2019-02-08T14:38:33.297Z,165
2019-02-08T14:39:43.218Z,165
2019-02-08T14:40:53.235Z,165
2019-02-08T14:42:03.156Z,160
2019-02-08T14:43:13.099Z,160
2019-02-08T14:44:23.070Z,155
2019-02-08T14:45:32.993Z,150
2019-02-08T14:46:43.012Z,140
2019-02-08T14:47:52.931Z,130
2019-02-08T14:49:04.768Z,125
2019-02-08T14:50:14.682Z,115
2019-02-08T14:51:24.596Z,110
2019-02-08T14:52:34.616Z,105
2019-02-08T14:53:44.534Z,100
2019-02-08T14:54:54.450Z,100
2019-02-08T14:56:04.368Z,95
2019-02-08T14:57:21.488Z,90
2019-02-08T14:58:31.505Z,90
2019-02-08T14:59:41.426Z,85
2019-02-08T15:00:51.339Z,85
2019-02-08T15:02:01.249Z,80
2019-02-08T15:03:11.175Z,80
2019-02-08T15:04:21.240Z,75
2019-02-08T15:05:31.161Z,75
2019-02-08T15:06:41.108Z,70
2019-02-08T15:07:51.038Z,70
2019-02-08T15:09:00.963Z,70
2019-02-08T15:10:10.884Z,70
2019-02-08T15:11:20.806Z,70
2019-02-08T15:12:30.723Z,65
2019-02-08T15:13:40.697Z,65
2019-02-08T15:14:50.617Z,60
2019-02-08T15:16:00.629Z,60
2019-02-08T15:17:10.547Z,55
2019-02-08T15:18:21.199Z,55
2019-02-08T15:19:31.115Z,50
2019-02-08T15:20:41.044Z,50
2019-02-08T15:21:51.010Z,45
2019-02-08T15:23:00.926Z,40
2019-02-08T15:24:10.848Z,40
2019-02-08T15:25:20.770Z,35
2019-02-08T15:26:30.727Z,35
2019-02-08T15:27:40.749Z,35
2019-02-08T15:28:50.671Z,30
2019-02-08T15:30:00.585Z,30
2019-02-08T15:31:10.671Z,30
2019-02-08T15:32:20.606Z,25
2019-02-08T15:33:30.610Z,25
2019-02-08T15:34:40.527Z,25
2019-02-08T15:35:50.442Z,25
2019-02-08T15:37:00.458Z,20
2019-02-08T15:38:10.420Z,20
2019-02-08T15:39:20.407Z,20
2019-02-08T15:40:30.334Z,15
2019-02-08T15:41:40.295Z,15
2019-02-08T15:42:50.346Z,15
2019-02-08T15:44:00.164Z,15
2019-02-08T15:45:10.297Z,15
2019-02-08T15:46:20.695Z,10
2019-02-08T15:47:30.832Z,10
2019-02-08T15:48:40.943Z,10
2019-02-08T15:49:50.874Z,10
2019-02-08T15:51:00.975Z,10
2019-02-08T15:52:10.641Z,5
2019-02-08T15:53:20.576Z,5
2019-02-08T15:54:30.513Z,5
2019-02-08T15:55:40.428Z,5
2019-02-08T15:56:50.387Z,5
2019-02-08T15:58:00.304Z,5
2019-02-08T15:59:10.212Z,5
2019-02-08T16:00:20.128Z,0
2019-02-08T16:01:30.047Z,0
2019-02-08T16:02:40.058Z,0
2019-02-08T16:03:49.978Z,0
2019-02-08T16:04:59.884Z,0
2019-02-08T16:06:09.795Z,0
2019-02-08T16:07:21.198Z,0
2019-02-08T16:08:31.169Z,0
2019-02-08T16:09:41.085Z,0
2019-02-08T16:10:50.746Z,0
2019-02-08T16:12:00.661Z,0
2019-02-08T16:13:10.575Z,0
2019-02-08T16:14:20.585Z,0
2019-02-08T16:15:30.502Z,0
2019-02-08T16:16:40.419Z,0
2019-02-08T16:17:50.336Z,0
2019-02-08T16:19:00.259Z,0
2019-02-08T16:20:09.919Z,0
2019-02-08T16:21:19.875Z,0
2019-02-08T16:22:29.787Z,0
2019-02-08T16:23:39.448Z,0
2019-02-08T16:24:49.985Z,0
2019-02-08T16:26:00.052Z,0
2019-02-08T16:27:09.967Z,0
2019-02-08T16:28:19.878Z,0
2019-02-08T16:29:29.794Z,0
2019-02-08T16:30:39.716Z,0
2019-02-08T16:31:49.750Z,0
2019-02-08T16:32:59.666Z,0
2019-02-08T16:34:09.324Z,0
2019-02-08T16:35:19.872Z,0
2019-02-08T16:36:29.896Z,0
2019-02-08T16:37:39.921Z,0
2019-02-08T16:38:49.861Z,0
2019-02-08T16:39:59.771Z,0
2019-02-08T16:41:09.687Z,0